Atlantic - Newfoundland: Past 24 Hour Conditions

 

J.A. Douglas McCurdy Sydney Airport

07:00 AM ADT 20 September 2014
This table is a summary of hourly weather conditions for the past 24 hours.
Date / Time
(ADT)
Wind(knots) Conditions Visibility(km) Pressure(kPa) Air tempC) Relative humidity(%) Dew pointC)
20 September 2014
7:00 SW 7 Partly Cloudy 24 102.9 3 87 1
6:00 SSW 5 Mainly Clear 24 102.8 3 87 1
5:00 SW 8 Mainly Clear 24 102.8 3 86 1
4:00 SW 8 Mainly Clear 24 102.7 1 89 0
3:00 SW 7 Clear 24 102.7 1 91 0
2:00 SW 7 Clear 24 102.7 1 91 -1
1:00 WSW 6 Clear 24 102.7 2 89 0
0:00 W 7 Clear 24 102.7 3 83 1
19 September 2014
23:00 W 8 Mainly Clear 24 102.6 4 79 1
22:00 W 6 Mainly Clear 24 102.5 5 73 0
21:00 W 10 Mainly Clear 24 102.5 6 71 1
20:00 WNW 12 gust 20 Partly Cloudy 24 102.4 7 74 2
19:00 NW 11 gust 20 Partly Cloudy 24 102.3 8 72 3
18:00 NW 12 gust 18 Mostly Cloudy 24 102.2 8 74 4
17:00 WNW 8 gust 15 Light Rainshower 16 102.1 7 82 4
16:00 WNW 22 gust 36 Light Rainshower 24 101.9 8 66 2
15:00 W 13 gust 28 Light Rainshower 24 101.8 10 71 5
14:00 WNW 19 gust 27 Light Rainshower 24 101.8 12 44 0
13:00 NW 16 gust 25 Light Rainshower 24 101.8 12 41 -1
12:00 WNW 12 Partly Cloudy 24 101.8 11 49 1
11:00 NW 14 gust 20 Mostly Cloudy 24 101.7 11 47 0
10:00 WNW 16 Mostly Cloudy 24 101.7 10 51 0
9:00 NW 13 gust 19 Mostly Cloudy 24 101.7 10 65 4
8:00 W 5 Partly Cloudy 24 101.6 8 85 6
7:00 W 7 Partly Cloudy 24 101.6 6 93 5
 
Map of Atlantic - Newfoundland marine weather areas Southwestern Grand Banks - 44138 Banquereau - 44139 Tail of the Bank - 44140 Nickerson Bank - 44251 Northeast Burgeo Bank - 44255 Blanc-Sablon Airport Cap Whittle Chevery Natashquan Airport Heath Point Miscou Island Grand Étang Ingonish Beach North Mountain St.Paul Island J.A. Douglas McCurdy Sydney Airport Charlottetown Airport East Point North Cape Argentia Bonavista Burgeo Cape Race Corner Brook Daniel's Harbour Englee Ferolle Point La Scie Port aux Basques Rocky Harbour Sagona Island St. Anthony Airport St. John's Int'l Airport St. Lawrence Stephenville Airport Twillingate Winterland Wreckhouse Cartwright Airport Mary's Harbour Grates Cove Pool's Island Marticot Island Long Pond Îles de la Madeleine Airport
Legend: buoyBuoy land stationLand Station